createdAt,value
2023-04-26T07:29:42.929Z,24.9
2023-04-26T07:35:38.071Z,24.7
2023-04-26T07:41:28.853Z,24.4
2023-04-26T07:47:22.890Z,24.3
2023-04-26T07:53:14.503Z,24.1
2023-04-26T07:59:08.208Z,23.8
2023-04-26T08:05:15.449Z,23.7
2023-04-26T08:11:08.026Z,23.4
2023-04-26T08:17:02.920Z,23.3
2023-04-26T08:22:55.638Z,23.1
2023-04-26T08:28:48.119Z,23
2023-04-26T08:34:40.284Z,22.9
2023-04-26T08:40:33.641Z,22.8
2023-04-26T08:46:28.184Z,22.6
2023-04-26T08:52:03.868Z,22.5
2023-04-26T08:57:56.913Z,22.4
2023-04-26T09:03:49.694Z,22.3
2023-04-26T09:09:44.885Z,22.3
2023-04-26T09:15:38.051Z,22.2
2023-04-26T09:21:15.622Z,22
2023-04-26T09:27:06.463Z,21.9
2023-04-26T09:33:00.621Z,21.9
2023-04-26T09:39:04.202Z,21.9
2023-04-26T09:44:41.647Z,21.8
2023-04-26T09:50:35.291Z,21.7
2023-04-26T09:56:40.630Z,21.6
2023-04-26T10:02:32.649Z,21.6
2023-04-26T10:08:26.865Z,21.5
2023-04-26T10:14:02.816Z,21.4
2023-04-26T10:19:38.202Z,21.4
2023-04-26T10:25:30.958Z,21.4
2023-04-26T10:31:29.788Z,21.4
2023-04-26T10:37:21.577Z,21.3
2023-04-26T10:43:15.453Z,21.3
2023-04-26T10:48:51.318Z,21.3
2023-04-26T10:54:43.592Z,21.3
2023-04-26T11:01:03.821Z,21.3
2023-04-26T11:28:59.156Z,21.1
2023-04-26T11:34:53.497Z,21.1
2023-04-26T11:40:43.918Z,21.1
2023-04-26T11:46:34.651Z,21
2023-04-26T11:52:27.726Z,21
2023-04-26T11:58:18.994Z,20.9
2023-04-26T12:04:12.370Z,20.9
2023-04-26T12:10:06.638Z,20.9
2023-04-26T12:15:58.673Z,20.9
2023-04-26T12:22:03.646Z,20.9
2023-04-26T12:27:40.976Z,20.9
2023-04-26T12:33:48.558Z,20.9
2023-04-26T12:39:40.286Z,20.8
2023-04-26T12:45:32.506Z,20.8
2023-04-26T12:51:25.289Z,20.8
2023-04-26T12:56:46.648Z,20.8
2023-04-26T13:02:25.113Z,20.8
2023-04-26T13:08:04.051Z,20.8
2023-04-26T13:13:29.322Z,20.8
2023-04-26T13:19:10.720Z,20.8
2023-04-26T13:25:02.187Z,20.8
2023-04-26T13:30:56.159Z,20.8
2023-04-26T13:36:52.811Z,20.8
2023-04-26T13:42:45.948Z,20.8
2023-04-26T13:48:37.550Z,20.8
2023-04-26T13:54:30.002Z,20.8
2023-04-26T14:00:21.415Z,20.7
2023-04-26T14:06:15.491Z,20.7
2023-04-26T14:12:23.018Z,20.7
2023-04-26T14:18:15.380Z,20.7
2023-04-26T14:24:07.268Z,20.6
2023-04-26T14:29:59.373Z,20.6
2023-04-26T14:35:53.088Z,20.6
2023-04-26T14:41:43.928Z,20.6
2023-04-26T14:47:54.933Z,20.6
2023-04-26T14:53:48.652Z,20.6
2023-04-26T14:59:43.678Z,33
2023-04-26T15:05:40.106Z,39
2023-04-26T15:11:28.230Z,40.5
2023-04-26T15:17:04.519Z,39.7
2023-04-26T15:22:57.059Z,39.6
2023-04-26T15:28:17.982Z,37.3
2023-04-26T15:34:10.361Z,38.3
2023-04-26T15:40:02.745Z,36.3
2023-04-26T15:45:55.831Z,40.8
2023-04-26T15:51:31.734Z,41.4
2023-04-26T15:57:26.021Z,41.8
2023-04-26T16:03:20.229Z,41.5
2023-04-26T16:09:41.236Z,41.9
2023-04-26T16:15:33.694Z,41.6
2023-04-26T16:21:26.642Z,38.8
2023-04-26T16:27:18.348Z,41.1
2023-04-26T16:33:13.369Z,37.6
2023-04-26T16:39:05.103Z,37.6
2023-04-26T16:44:56.883Z,39.7
2023-04-26T16:50:51.807Z,39.6
2023-04-26T16:56:43.563Z,37.2
2023-04-26T17:02:04.727Z,37.4
2023-04-26T17:07:31.233Z,36.6
2023-04-26T17:13:23.299Z,37.3
2023-04-26T17:19:15.071Z,36.3
2023-04-26T17:25:06.815Z,37.3
2023-04-26T17:30:58.734Z,41.7
2023-04-26T17:36:50.668Z,41.6
2023-04-26T17:42:42.392Z,41.2
2023-04-26T17:48:33.475Z,40.8
2023-04-26T17:54:28.156Z,41.2
2023-04-26T18:00:05.488Z,41.6
2023-04-26T18:06:00.821Z,41.4
2023-04-26T18:11:54.218Z,41.9
2023-04-26T18:17:46.973Z,38.9
2023-04-26T18:23:38.885Z,40.1
2023-04-26T18:29:30.589Z,38.1
2023-04-26T18:35:24.702Z,36.8
2023-04-26T18:41:16.541Z,36.4
2023-04-26T18:47:08.400Z,36.1
2023-04-26T18:53:01.365Z,35.7
2023-04-26T18:58:57.103Z,34.6
2023-04-26T19:04:36.067Z,32.1
2023-04-26T19:10:43.313Z,31
2023-04-26T19:16:37.787Z,30.1
2023-04-26T19:22:30.894Z,29.3
2023-04-26T19:28:24.707Z,28.7
2023-04-26T19:34:17.438Z,28.3
2023-04-26T19:45:51.310Z,27.5
2023-04-26T19:51:29.563Z,27.2
2023-04-26T19:57:08.396Z,27
2023-04-26T20:03:03.043Z,26.7
2023-04-26T20:08:56.809Z,26.5
2023-04-26T20:14:49.580Z,26.4
2023-04-26T20:20:44.377Z,26.2
2023-04-26T20:26:22.031Z,25.9
2023-04-26T20:32:15.328Z,25.7
2023-04-26T20:38:09.822Z,25.5
2023-04-26T20:44:02.318Z,25.3
2023-04-26T20:49:54.754Z,25.1
2023-04-26T20:55:47.089Z,24.9
2023-04-26T21:01:40.034Z,24.7
2023-04-26T21:07:33.355Z,24.4
2023-04-26T21:13:25.420Z,24.3
2023-04-26T21:19:17.073Z,24.1
2023-04-26T21:25:07.593Z,23.9
2023-04-26T21:30:59.419Z,23.7
2023-04-26T21:36:36.389Z,23.5
2023-04-26T21:42:26.638Z,23.3
2023-04-26T21:48:24.568Z,23.1
2023-04-26T21:54:15.532Z,23
2023-04-26T22:00:07.374Z,22.9
2023-04-26T22:06:00.981Z,22.7
2023-04-26T22:11:52.673Z,22.6
2023-04-26T22:17:43.252Z,22.5
2023-04-26T22:23:35.529Z,22.4
2023-04-26T22:29:27.221Z,22.3
2023-04-26T22:35:32.673Z,22.2
2023-04-26T22:41:29.832Z,22.1
2023-04-26T22:47:21.273Z,22
2023-04-26T22:53:36.684Z,21.9
2023-04-26T22:59:12.888Z,21.9
2023-04-26T23:04:50.195Z,21.8
2023-04-26T23:10:40.798Z,21.8
2023-04-26T23:16:34.925Z,21.7
2023-04-26T23:22:10.385Z,21.6
2023-04-26T23:28:02.923Z,21.6
2023-04-26T23:33:55.082Z,21.6
2023-04-26T23:39:51.468Z,21.6
2023-04-26T23:45:26.659Z,21.6
2023-04-26T23:51:19.026Z,21.6
2023-04-26T23:57:09.746Z,21.6
